sensor_id;sensor_type;location;lat;lon;timestamp;P1;durP1;ratioP1;P2;durP2;ratioP2
13014;SDS011;6573;57.696;11.950;2023-06-22T00:01:32;13.67;;;6.70;;
13014;SDS011;6573;57.696;11.950;2023-06-22T00:04:01;11.33;;;5.90;;
13014;SDS011;6573;57.696;11.950;2023-06-22T00:06:30;14.03;;;6.07;;
13014;SDS011;6573;57.696;11.950;2023-06-22T00:08:58;10.10;;;5.10;;
13014;SDS011;6573;57.696;11.950;2023-06-22T00:11:27;7.83;;;4.73;;
13014;SDS011;6573;57.696;11.950;2023-06-22T00:13:59;13.77;;;5.87;;
13014;SDS011;6573;57.696;11.950;2023-06-22T00:16:28;7.00;;;4.87;;
13014;SDS011;6573;57.696;11.950;2023-06-22T00:18:56;10.00;;;4.83;;
13014;SDS011;6573;57.696;11.950;2023-06-22T00:21:26;10.63;;;5.33;;
13014;SDS011;6573;57.696;11.950;2023-06-22T00:23:55;11.97;;;5.83;;
13014;SDS011;6573;57.696;11.950;2023-06-22T00:26:24;10.13;;;4.73;;
13014;SDS011;6573;57.696;11.950;2023-06-22T00:28:52;16.80;;;5.50;;
13014;SDS011;6573;57.696;11.950;2023-06-22T00:31:21;14.03;;;5.77;;
13014;SDS011;6573;57.696;11.950;2023-06-22T00:33:50;9.70;;;4.73;;
13014;SDS011;6573;57.696;11.950;2023-06-22T00:36:18;10.57;;;4.93;;
13014;SDS011;6573;57.696;11.950;2023-06-22T00:38:47;8.90;;;4.43;;
13014;SDS011;6573;57.696;11.950;2023-06-22T00:41:18;11.33;;;5.33;;
13014;SDS011;6573;57.696;11.950;2023-06-22T00:43:46;13.40;;;5.13;;
13014;SDS011;6573;57.696;11.950;2023-06-22T00:46:15;12.57;;;5.70;;
13014;SDS011;6573;57.696;11.950;2023-06-22T00:48:44;11.70;;;4.80;;
13014;SDS011;6573;57.696;11.950;2023-06-22T00:51:13;9.43;;;4.40;;
13014;SDS011;6573;57.696;11.950;2023-06-22T00:53:41;11.63;;;4.37;;
13014;SDS011;6573;57.696;11.950;2023-06-22T00:56:10;12.43;;;5.60;;
13014;SDS011;6573;57.696;11.950;2023-06-22T00:58:39;13.17;;;4.90;;
13014;SDS011;6573;57.696;11.950;2023-06-22T01:01:11;9.10;;;4.53;;
13014;SDS011;6573;57.696;11.950;2023-06-22T01:03:40;10.40;;;4.33;;
13014;SDS011;6573;57.696;11.950;2023-06-22T01:06:14;12.83;;;4.73;;
13014;SDS011;6573;57.696;11.950;2023-06-22T01:08:49;9.57;;;4.03;;
13014;SDS011;6573;57.696;11.950;2023-06-22T01:11:24;9.97;;;4.17;;
13014;SDS011;6573;57.696;11.950;2023-06-22T01:14:00;16.23;;;5.13;;
13014;SDS011;6573;57.696;11.950;2023-06-22T01:16:33;11.00;;;4.37;;
13014;SDS011;6573;57.696;11.950;2023-06-22T01:19:05;4.73;;;3.00;;
13014;SDS011;6573;57.696;11.950;2023-06-22T01:21:46;10.83;;;4.43;;
13014;SDS011;6573;57.696;11.950;2023-06-22T01:24:18;8.67;;;4.47;;
13014;SDS011;6573;57.696;11.950;2023-06-22T01:26:54;7.77;;;4.03;;
13014;SDS011;6573;57.696;11.950;2023-06-22T01:29:31;7.00;;;4.00;;
13014;SDS011;6573;57.696;11.950;2023-06-22T01:32:05;11.83;;;4.30;;
13014;SDS011;6573;57.696;11.950;2023-06-22T01:34:35;12.53;;;4.67;;
13014;SDS011;6573;57.696;11.950;2023-06-22T01:37:06;12.03;;;4.17;;
13014;SDS011;6573;57.696;11.950;2023-06-22T01:39:43;11.20;;;4.77;;
13014;SDS011;6573;57.696;11.950;2023-06-22T01:42:12;10.27;;;4.90;;
13014;SDS011;6573;57.696;11.950;2023-06-22T01:44:42;13.30;;;5.27;;
13014;SDS011;6573;57.696;11.950;2023-06-22T01:47:11;11.33;;;4.43;;
13014;SDS011;6573;57.696;11.950;2023-06-22T01:49:41;10.93;;;5.13;;
13014;SDS011;6573;57.696;11.950;2023-06-22T01:52:09;11.07;;;4.13;;
13014;SDS011;6573;57.696;11.950;2023-06-22T01:54:37;7.57;;;4.00;;
13014;SDS011;6573;57.696;11.950;2023-06-22T01:57:07;10.90;;;4.37;;
13014;SDS011;6573;57.696;11.950;2023-06-22T01:59:36;12.83;;;4.40;;
13014;SDS011;6573;57.696;11.950;2023-06-22T02:02:12;11.10;;;3.80;;
13014;SDS011;6573;57.696;11.950;2023-06-22T02:04:48;11.87;;;5.03;;
13014;SDS011;6573;57.696;11.950;2023-06-22T02:07:23;10.17;;;4.03;;
13014;SDS011;6573;57.696;11.950;2023-06-22T02:09:56;11.03;;;4.07;;
13014;SDS011;6573;57.696;11.950;2023-06-22T02:12:29;12.60;;;4.30;;
13014;SDS011;6573;57.696;11.950;2023-06-22T02:14:58;11.20;;;4.07;;
13014;SDS011;6573;57.696;11.950;2023-06-22T02:17:29;10.90;;;4.10;;
13014;SDS011;6573;57.696;11.950;2023-06-22T02:20:00;8.53;;;4.23;;
13014;SDS011;6573;57.696;11.950;2023-06-22T02:22:37;12.30;;;4.47;;
13014;SDS011;6573;57.696;11.950;2023-06-22T02:25:06;11.93;;;3.90;;
13014;SDS011;6573;57.696;11.950;2023-06-22T02:27:35;13.47;;;4.17;;
13014;SDS011;6573;57.696;11.950;2023-06-22T02:30:07;12.67;;;5.13;;
13014;SDS011;6573;57.696;11.950;2023-06-22T02:32:38;7.63;;;3.83;;
13014;SDS011;6573;57.696;11.950;2023-06-22T02:35:09;11.27;;;4.67;;
13014;SDS011;6573;57.696;11.950;2023-06-22T02:37:37;11.37;;;5.30;;
13014;SDS011;6573;57.696;11.950;2023-06-22T02:40:08;12.20;;;4.83;;
13014;SDS011;6573;57.696;11.950;2023-06-22T02:42:37;11.67;;;4.27;;
13014;SDS011;6573;57.696;11.950;2023-06-22T02:45:07;12.37;;;4.70;;
13014;SDS011;6573;57.696;11.950;2023-06-22T02:47:37;13.90;;;4.70;;
13014;SDS011;6573;57.696;11.950;2023-06-22T02:50:06;13.10;;;4.33;;
13014;SDS011;6573;57.696;11.950;2023-06-22T02:52:35;8.93;;;4.40;;
13014;SDS011;6573;57.696;11.950;2023-06-22T02:55:05;11.63;;;4.37;;
13014;SDS011;6573;57.696;11.950;2023-06-22T02:57:35;13.60;;;4.53;;
13014;SDS011;6573;57.696;11.950;2023-06-22T03:00:03;9.50;;;4.60;;
13014;SDS011;6573;57.696;11.950;2023-06-22T03:02:44;12.57;;;4.07;;
13014;SDS011;6573;57.696;11.950;2023-06-22T03:05:19;13.00;;;4.53;;
13014;SDS011;6573;57.696;11.950;2023-06-22T03:07:47;12.40;;;4.50;;
13014;SDS011;6573;57.696;11.950;2023-06-22T03:10:16;11.33;;;4.40;;
13014;SDS011;6573;57.696;11.950;2023-06-22T03:12:45;13.57;;;4.27;;
13014;SDS011;6573;57.696;11.950;2023-06-22T03:15:17;14.20;;;4.47;;
13014;SDS011;6573;57.696;11.950;2023-06-22T03:17:51;10.60;;;4.23;;
13014;SDS011;6573;57.696;11.950;2023-06-22T03:20:20;12.77;;;4.43;;
13014;SDS011;6573;57.696;11.950;2023-06-22T03:22:49;8.23;;;4.30;;
13014;SDS011;6573;57.696;11.950;2023-06-22T03:25:17;14.93;;;5.30;;
13014;SDS011;6573;57.696;11.950;2023-06-22T03:27:46;14.33;;;4.83;;
13014;SDS011;6573;57.696;11.950;2023-06-22T03:30:17;11.83;;;4.67;;
13014;SDS011;6573;57.696;11.950;2023-06-22T03:32:45;8.53;;;3.27;;
13014;SDS011;6573;57.696;11.950;2023-06-22T03:35:16;14.77;;;4.60;;
13014;SDS011;6573;57.696;11.950;2023-06-22T03:37:44;11.67;;;4.47;;
13014;SDS011;6573;57.696;11.950;2023-06-22T03:40:12;10.80;;;4.37;;
13014;SDS011;6573;57.696;11.950;2023-06-22T03:42:41;13.33;;;5.60;;
13014;SDS011;6573;57.696;11.950;2023-06-22T03:45:09;9.30;;;4.50;;
13014;SDS011;6573;57.696;11.950;2023-06-22T03:47:40;13.23;;;4.40;;
13014;SDS011;6573;57.696;11.950;2023-06-22T03:50:09;10.07;;;4.00;;
13014;SDS011;6573;57.696;11.950;2023-06-22T03:52:39;11.83;;;4.40;;
13014;SDS011;6573;57.696;11.950;2023-06-22T03:55:08;9.87;;;4.27;;
13014;SDS011;6573;57.696;11.950;2023-06-22T03:57:36;8.43;;;5.03;;
13014;SDS011;6573;57.696;11.950;2023-06-22T04:00:06;12.03;;;4.47;;
13014;SDS011;6573;57.696;11.950;2023-06-22T04:02:37;12.17;;;4.90;;
13014;SDS011;6573;57.696;11.950;2023-06-22T04:05:05;12.77;;;4.83;;
13014;SDS011;6573;57.696;11.950;2023-06-22T04:07:34;11.93;;;4.90;;
13014;SDS011;6573;57.696;11.950;2023-06-22T04:10:06;14.57;;;4.60;;
13014;SDS011;6573;57.696;11.950;2023-06-22T04:12:38;7.70;;;3.83;;
13014;SDS011;6573;57.696;11.950;2023-06-22T04:15:06;12.60;;;5.27;;
13014;SDS011;6573;57.696;11.950;2023-06-22T04:17:35;14.80;;;4.37;;
13014;SDS011;6573;57.696;11.950;2023-06-22T04:20:04;17.70;;;4.87;;
13014;SDS011;6573;57.696;11.950;2023-06-22T04:22:34;9.33;;;4.90;;
13014;SDS011;6573;57.696;11.950;2023-06-22T04:25:03;11.43;;;5.23;;
13014;SDS011;6573;57.696;11.950;2023-06-22T04:27:33;14.67;;;5.40;;
13014;SDS011;6573;57.696;11.950;2023-06-22T04:30:04;17.97;;;5.17;;
13014;SDS011;6573;57.696;11.950;2023-06-22T04:32:34;8.67;;;4.23;;
13014;SDS011;6573;57.696;11.950;2023-06-22T04:35:03;19.03;;;4.93;;
13014;SDS011;6573;57.696;11.950;2023-06-22T04:37:33;15.30;;;4.43;;
13014;SDS011;6573;57.696;11.950;2023-06-22T04:40:06;8.33;;;3.20;;
13014;SDS011;6573;57.696;11.950;2023-06-22T04:45:19;10.37;;;4.30;;
13014;SDS011;6573;57.696;11.950;2023-06-22T04:47:49;12.00;;;4.67;;
13014;SDS011;6573;57.696;11.950;2023-06-22T04:50:20;13.23;;;4.83;;
13014;SDS011;6573;57.696;11.950;2023-06-22T04:52:50;7.47;;;4.23;;
13014;SDS011;6573;57.696;11.950;2023-06-22T04:55:19;10.77;;;4.87;;
13014;SDS011;6573;57.696;11.950;2023-06-22T04:57:49;9.90;;;4.70;;
13014;SDS011;6573;57.696;11.950;2023-06-22T05:00:18;9.20;;;3.90;;
13014;SDS011;6573;57.696;11.950;2023-06-22T05:02:49;11.37;;;4.87;;
13014;SDS011;6573;57.696;11.950;2023-06-22T05:05:24;10.90;;;4.80;;
13014;SDS011;6573;57.696;11.950;2023-06-22T05:07:53;8.40;;;4.23;;
13014;SDS011;6573;57.696;11.950;2023-06-22T05:10:27;11.77;;;4.93;;
13014;SDS011;6573;57.696;11.950;2023-06-22T05:12:58;16.33;;;5.43;;
13014;SDS011;6573;57.696;11.950;2023-06-22T05:15:26;10.27;;;5.53;;
13014;SDS011;6573;57.696;11.950;2023-06-22T05:17:57;12.23;;;5.20;;
13014;SDS011;6573;57.696;11.950;2023-06-22T05:20:25;10.83;;;4.57;;
13014;SDS011;6573;57.696;11.950;2023-06-22T05:22:56;10.07;;;5.30;;
13014;SDS011;6573;57.696;11.950;2023-06-22T05:25:25;14.03;;;4.37;;
13014;SDS011;6573;57.696;11.950;2023-06-22T05:27:58;13.87;;;5.10;;
13014;SDS011;6573;57.696;11.950;2023-06-22T05:30:27;13.53;;;4.97;;
13014;SDS011;6573;57.696;11.950;2023-06-22T05:32:55;14.97;;;6.40;;
13014;SDS011;6573;57.696;11.950;2023-06-22T05:35:23;11.50;;;6.07;;
13014;SDS011;6573;57.696;11.950;2023-06-22T05:37:54;11.63;;;5.00;;
13014;SDS011;6573;57.696;11.950;2023-06-22T05:40:23;12.10;;;5.87;;
13014;SDS011;6573;57.696;11.950;2023-06-22T05:42:54;8.77;;;4.87;;
13014;SDS011;6573;57.696;11.950;2023-06-22T05:45:25;12.90;;;4.90;;
13014;SDS011;6573;57.696;11.950;2023-06-22T05:47:55;14.53;;;5.30;;
13014;SDS011;6573;57.696;11.950;2023-06-22T05:50:23;12.57;;;4.57;;
13014;SDS011;6573;57.696;11.950;2023-06-22T05:52:51;8.80;;;4.10;;
13014;SDS011;6573;57.696;11.950;2023-06-22T05:55:19;14.20;;;4.63;;
13014;SDS011;6573;57.696;11.950;2023-06-22T05:57:48;17.83;;;5.20;;
13014;SDS011;6573;57.696;11.950;2023-06-22T06:00:17;11.63;;;4.57;;
13014;SDS011;6573;57.696;11.950;2023-06-22T06:02:47;11.87;;;5.77;;
13014;SDS011;6573;57.696;11.950;2023-06-22T06:05:16;9.40;;;5.30;;
13014;SDS011;6573;57.696;11.950;2023-06-22T06:07:46;9.93;;;4.90;;
13014;SDS011;6573;57.696;11.950;2023-06-22T06:10:14;8.70;;;4.00;;
13014;SDS011;6573;57.696;11.950;2023-06-22T06:12:43;11.80;;;5.40;;
13014;SDS011;6573;57.696;11.950;2023-06-22T06:15:11;15.50;;;4.73;;
13014;SDS011;6573;57.696;11.950;2023-06-22T06:17:46;10.77;;;4.57;;
13014;SDS011;6573;57.696;11.950;2023-06-22T06:20:17;14.67;;;5.47;;
13014;SDS011;6573;57.696;11.950;2023-06-22T06:22:46;13.27;;;5.80;;
13014;SDS011;6573;57.696;11.950;2023-06-22T06:25:15;11.67;;;5.90;;
13014;SDS011;6573;57.696;11.950;2023-06-22T06:27:51;14.47;;;5.80;;
13014;SDS011;6573;57.696;11.950;2023-06-22T06:30:21;11.10;;;4.83;;
13014;SDS011;6573;57.696;11.950;2023-06-22T06:32:52;10.30;;;4.90;;
13014;SDS011;6573;57.696;11.950;2023-06-22T06:35:20;13.53;;;5.40;;
13014;SDS011;6573;57.696;11.950;2023-06-22T06:37:50;11.67;;;4.47;;
13014;SDS011;6573;57.696;11.950;2023-06-22T06:40:19;10.23;;;4.50;;
13014;SDS011;6573;57.696;11.950;2023-06-22T06:42:48;12.73;;;4.27;;
13014;SDS011;6573;57.696;11.950;2023-06-22T06:45:17;8.27;;;4.67;;
13014;SDS011;6573;57.696;11.950;2023-06-22T06:47:50;11.53;;;4.70;;
13014;SDS011;6573;57.696;11.950;2023-06-22T06:50:21;11.43;;;4.73;;
13014;SDS011;6573;57.696;11.950;2023-06-22T06:52:49;12.10;;;5.10;;
13014;SDS011;6573;57.696;11.950;2023-06-22T06:55:18;11.10;;;4.50;;
13014;SDS011;6573;57.696;11.950;2023-06-22T06:57:47;9.60;;;4.50;;
13014;SDS011;6573;57.696;11.950;2023-06-22T07:00:19;12.90;;;4.83;;
13014;SDS011;6573;57.696;11.950;2023-06-22T07:02:48;10.27;;;4.73;;
13014;SDS011;6573;57.696;11.950;2023-06-22T07:05:18;10.23;;;4.17;;
13014;SDS011;6573;57.696;11.950;2023-06-22T07:07:46;9.63;;;4.63;;
13014;SDS011;6573;57.696;11.950;2023-06-22T07:10:15;10.70;;;4.53;;
13014;SDS011;6573;57.696;11.950;2023-06-22T07:12:43;10.97;;;4.97;;
13014;SDS011;6573;57.696;11.950;2023-06-22T07:15:13;10.77;;;4.50;;
13014;SDS011;6573;57.696;11.950;2023-06-22T07:17:42;13.77;;;3.97;;
13014;SDS011;6573;57.696;11.950;2023-06-22T07:20:15;11.07;;;4.57;;
13014;SDS011;6573;57.696;11.950;2023-06-22T07:22:44;11.40;;;4.27;;
13014;SDS011;6573;57.696;11.950;2023-06-22T07:25:12;13.57;;;4.67;;
13014;SDS011;6573;57.696;11.950;2023-06-22T07:27:44;9.60;;;4.60;;
13014;SDS011;6573;57.696;11.950;2023-06-22T07:30:14;9.30;;;4.30;;
13014;SDS011;6573;57.696;11.950;2023-06-22T07:32:44;13.20;;;4.63;;
13014;SDS011;6573;57.696;11.950;2023-06-22T07:35:13;8.93;;;4.33;;
13014;SDS011;6573;57.696;11.950;2023-06-22T07:37:45;34.03;;;5.30;;
13014;SDS011;6573;57.696;11.950;2023-06-22T07:40:14;12.43;;;4.30;;
13014;SDS011;6573;57.696;11.950;2023-06-22T07:42:42;9.73;;;4.23;;
13014;SDS011;6573;57.696;11.950;2023-06-22T07:45:16;10.63;;;5.07;;
13014;SDS011;6573;57.696;11.950;2023-06-22T07:47:45;8.23;;;4.43;;
13014;SDS011;6573;57.696;11.950;2023-06-22T07:50:14;9.10;;;4.00;;
13014;SDS011;6573;57.696;11.950;2023-06-22T07:52:47;14.87;;;4.27;;
13014;SDS011;6573;57.696;11.950;2023-06-22T07:55:16;8.47;;;4.60;;
13014;SDS011;6573;57.696;11.950;2023-06-22T07:57:46;9.77;;;4.10;;
13014;SDS011;6573;57.696;11.950;2023-06-22T08:00:18;10.40;;;4.50;;
13014;SDS011;6573;57.696;11.950;2023-06-22T08:02:47;9.67;;;4.13;;
13014;SDS011;6573;57.696;11.950;2023-06-22T08:05:18;9.77;;;4.73;;
13014;SDS011;6573;57.696;11.950;2023-06-22T08:08:02;12.00;;;4.93;;
13014;SDS011;6573;57.696;11.950;2023-06-22T08:10:31;8.13;;;4.13;;
13014;SDS011;6573;57.696;11.950;2023-06-22T08:13:00;9.23;;;3.90;;
13014;SDS011;6573;57.696;11.950;2023-06-22T08:15:28;8.77;;;4.27;;
13014;SDS011;6573;57.696;11.950;2023-06-22T08:17:58;10.30;;;4.47;;
13014;SDS011;6573;57.696;11.950;2023-06-22T08:20:27;9.10;;;4.13;;
13014;SDS011;6573;57.696;11.950;2023-06-22T08:22:55;10.13;;;3.87;;
13014;SDS011;6573;57.696;11.950;2023-06-22T08:25:35;12.53;;;3.90;;
13014;SDS011;6573;57.696;11.950;2023-06-22T08:28:04;6.30;;;3.80;;
13014;SDS011;6573;57.696;11.950;2023-06-22T08:30:33;9.43;;;3.80;;
13014;SDS011;6573;57.696;11.950;2023-06-22T08:33:01;11.07;;;3.67;;
13014;SDS011;6573;57.696;11.950;2023-06-22T08:35:33;8.23;;;4.00;;
13014;SDS011;6573;57.696;11.950;2023-06-22T08:38:02;7.37;;;4.07;;
13014;SDS011;6573;57.696;11.950;2023-06-22T08:40:38;7.23;;;4.00;;
13014;SDS011;6573;57.696;11.950;2023-06-22T08:43:17;11.27;;;3.90;;
13014;SDS011;6573;57.696;11.950;2023-06-22T08:46:00;8.47;;;3.73;;
13014;SDS011;6573;57.696;11.950;2023-06-22T08:48:44;9.33;;;3.90;;
13014;SDS011;6573;57.696;11.950;2023-06-22T08:51:40;7.13;;;3.70;;
13014;SDS011;6573;57.696;11.950;2023-06-22T08:54:19;7.70;;;3.80;;
13014;SDS011;6573;57.696;11.950;2023-06-22T08:57:03;8.57;;;4.27;;
13014;SDS011;6573;57.696;11.950;2023-06-22T08:59:39;8.00;;;3.83;;
13014;SDS011;6573;57.696;11.950;2023-06-22T09:02:16;10.47;;;3.90;;
13014;SDS011;6573;57.696;11.950;2023-06-22T09:04:51;9.57;;;3.47;;
13014;SDS011;6573;57.696;11.950;2023-06-22T09:08:02;7.90;;;3.70;;
13014;SDS011;6573;57.696;11.950;2023-06-22T09:10:34;8.67;;;3.57;;
13014;SDS011;6573;57.696;11.950;2023-06-22T09:13:17;8.47;;;4.00;;
13014;SDS011;6573;57.696;11.950;2023-06-22T09:15:53;9.60;;;3.80;;
13014;SDS011;6573;57.696;11.950;2023-06-22T09:18:42;8.30;;;3.97;;
13014;SDS011;6573;57.696;11.950;2023-06-22T09:21:23;6.43;;;3.60;;
13014;SDS011;6573;57.696;11.950;2023-06-22T09:24:07;10.80;;;4.37;;
13014;SDS011;6573;57.696;11.950;2023-06-22T09:26:46;10.73;;;3.43;;
13014;SDS011;6573;57.696;11.950;2023-06-22T09:29:28;9.70;;;3.83;;
13014;SDS011;6573;57.696;11.950;2023-06-22T09:32:04;5.40;;;3.17;;
13014;SDS011;6573;57.696;11.950;2023-06-22T09:34:38;7.50;;;3.80;;
13014;SDS011;6573;57.696;11.950;2023-06-22T09:37:26;4.33;;;3.40;;
13014;SDS011;6573;57.696;11.950;2023-06-22T09:40:41;6.10;;;3.20;;
13014;SDS011;6573;57.696;11.950;2023-06-22T09:43:35;7.63;;;3.70;;
13014;SDS011;6573;57.696;11.950;2023-06-22T09:46:31;8.67;;;3.50;;
13014;SDS011;6573;57.696;11.950;2023-06-22T09:49:18;7.73;;;4.20;;
13014;SDS011;6573;57.696;11.950;2023-06-22T09:52:13;6.37;;;3.80;;
13014;SDS011;6573;57.696;11.950;2023-06-22T09:54:57;6.80;;;3.60;;
13014;SDS011;6573;57.696;11.950;2023-06-22T09:57:40;6.43;;;3.70;;
13014;SDS011;6573;57.696;11.950;2023-06-22T10:03:14;11.53;;;4.13;;
13014;SDS011;6573;57.696;11.950;2023-06-22T10:06:01;8.63;;;4.43;;
13014;SDS011;6573;57.696;11.950;2023-06-22T10:08:51;8.77;;;4.27;;
13014;SDS011;6573;57.696;11.950;2023-06-22T10:11:58;6.33;;;4.50;;
13014;SDS011;6573;57.696;11.950;2023-06-22T10:14:49;10.23;;;4.03;;
13014;SDS011;6573;57.696;11.950;2023-06-22T10:17:41;5.47;;;3.93;;
13014;SDS011;6573;57.696;11.950;2023-06-22T10:20:37;9.60;;;4.40;;
13014;SDS011;6573;57.696;11.950;2023-06-22T10:23:19;9.87;;;4.60;;
13014;SDS011;6573;57.696;11.950;2023-06-22T10:26:10;7.97;;;4.17;;
13014;SDS011;6573;57.696;11.950;2023-06-22T10:28:57;10.23;;;4.53;;
13014;SDS011;6573;57.696;11.950;2023-06-22T10:31:43;6.63;;;4.07;;
13014;SDS011;6573;57.696;11.950;2023-06-22T10:34:15;8.30;;;4.40;;
13014;SDS011;6573;57.696;11.950;2023-06-22T10:36:45;7.10;;;3.67;;
13014;SDS011;6573;57.696;11.950;2023-06-22T10:39:15;8.90;;;4.73;;
13014;SDS011;6573;57.696;11.950;2023-06-22T10:41:44;10.73;;;5.70;;
13014;SDS011;6573;57.696;11.950;2023-06-22T10:44:12;11.73;;;5.33;;
13014;SDS011;6573;57.696;11.950;2023-06-22T10:46:41;8.47;;;5.00;;
13014;SDS011;6573;57.696;11.950;2023-06-22T10:49:17;11.33;;;5.60;;
13014;SDS011;6573;57.696;11.950;2023-06-22T10:52:22;11.57;;;4.83;;
13014;SDS011;6573;57.696;11.950;2023-06-22T10:55:08;12.77;;;5.30;;
13014;SDS011;6573;57.696;11.950;2023-06-22T10:57:37;9.50;;;4.67;;
13014;SDS011;6573;57.696;11.950;2023-06-22T11:00:10;9.63;;;4.90;;
13014;SDS011;6573;57.696;11.950;2023-06-22T11:02:40;10.93;;;4.50;;
13014;SDS011;6573;57.696;11.950;2023-06-22T11:05:08;8.00;;;5.17;;
13014;SDS011;6573;57.696;11.950;2023-06-22T11:07:39;8.97;;;4.67;;
13014;SDS011;6573;57.696;11.950;2023-06-22T11:10:10;10.03;;;5.50;;
13014;SDS011;6573;57.696;11.950;2023-06-22T11:12:39;7.73;;;5.53;;
13014;SDS011;6573;57.696;11.950;2023-06-22T11:15:09;11.97;;;5.10;;
13014;SDS011;6573;57.696;11.950;2023-06-22T11:17:37;9.60;;;5.07;;
13014;SDS011;6573;57.696;11.950;2023-06-22T11:20:06;10.40;;;5.13;;
13014;SDS011;6573;57.696;11.950;2023-06-22T11:22:41;10.20;;;6.00;;
13014;SDS011;6573;57.696;11.950;2023-06-22T11:25:09;10.33;;;6.73;;
13014;SDS011;6573;57.696;11.950;2023-06-22T11:27:39;8.73;;;6.00;;
13014;SDS011;6573;57.696;11.950;2023-06-22T11:30:08;13.37;;;6.33;;
13014;SDS011;6573;57.696;11.950;2023-06-22T11:32:36;10.10;;;5.97;;
13014;SDS011;6573;57.696;11.950;2023-06-22T11:35:05;12.93;;;6.40;;
13014;SDS011;6573;57.696;11.950;2023-06-22T11:37:34;9.00;;;5.30;;
13014;SDS011;6573;57.696;11.950;2023-06-22T11:40:05;11.10;;;5.40;;
13014;SDS011;6573;57.696;11.950;2023-06-22T11:42:35;10.17;;;5.63;;
13014;SDS011;6573;57.696;11.950;2023-06-22T11:45:06;9.77;;;5.13;;
13014;SDS011;6573;57.696;11.950;2023-06-22T11:47:36;9.17;;;5.10;;
13014;SDS011;6573;57.696;11.950;2023-06-22T11:50:06;7.87;;;5.27;;
13014;SDS011;6573;57.696;11.950;2023-06-22T11:52:36;5.17;;;3.90;;
13014;SDS011;6573;57.696;11.950;2023-06-22T11:55:06;7.53;;;4.23;;
13014;SDS011;6573;57.696;11.950;2023-06-22T11:57:35;9.83;;;4.47;;
13014;SDS011;6573;57.696;11.950;2023-06-22T12:00:05;9.53;;;5.50;;
13014;SDS011;6573;57.696;11.950;2023-06-22T12:02:42;7.13;;;4.33;;
13014;SDS011;6573;57.696;11.950;2023-06-22T12:05:12;8.60;;;5.20;;
13014;SDS011;6573;57.696;11.950;2023-06-22T12:07:40;9.20;;;5.43;;
13014;SDS011;6573;57.696;11.950;2023-06-22T12:10:10;10.23;;;5.23;;
13014;SDS011;6573;57.696;11.950;2023-06-22T12:12:41;8.23;;;4.63;;
13014;SDS011;6573;57.696;11.950;2023-06-22T12:15:09;10.00;;;4.70;;
13014;SDS011;6573;57.696;11.950;2023-06-22T12:17:39;9.37;;;5.20;;
13014;SDS011;6573;57.696;11.950;2023-06-22T12:20:09;10.43;;;5.27;;
13014;SDS011;6573;57.696;11.950;2023-06-22T12:22:38;18.57;;;5.33;;
13014;SDS011;6573;57.696;11.950;2023-06-22T12:25:10;6.57;;;3.63;;
13014;SDS011;6573;57.696;11.950;2023-06-22T12:27:44;8.67;;;5.40;;
13014;SDS011;6573;57.696;11.950;2023-06-22T12:30:15;13.83;;;5.30;;
13014;SDS011;6573;57.696;11.950;2023-06-22T12:32:44;9.10;;;4.60;;
13014;SDS011;6573;57.696;11.950;2023-06-22T12:35:12;8.17;;;5.17;;
13014;SDS011;6573;57.696;11.950;2023-06-22T12:37:41;9.67;;;5.10;;
13014;SDS011;6573;57.696;11.950;2023-06-22T12:40:12;12.67;;;5.80;;
13014;SDS011;6573;57.696;11.950;2023-06-22T12:42:40;8.63;;;6.10;;
13014;SDS011;6573;57.696;11.950;2023-06-22T12:45:09;10.97;;;5.43;;
13014;SDS011;6573;57.696;11.950;2023-06-22T12:47:38;8.47;;;5.40;;
13014;SDS011;6573;57.696;11.950;2023-06-22T12:50:07;11.63;;;6.40;;
13014;SDS011;6573;57.696;11.950;2023-06-22T12:52:37;10.20;;;5.60;;
13014;SDS011;6573;57.696;11.950;2023-06-22T12:55:09;9.53;;;5.80;;
13014;SDS011;6573;57.696;11.950;2023-06-22T12:57:38;8.90;;;5.20;;
13014;SDS011;6573;57.696;11.950;2023-06-22T13:00:07;10.63;;;6.07;;
13014;SDS011;6573;57.696;11.950;2023-06-22T13:02:37;7.63;;;5.53;;
13014;SDS011;6573;57.696;11.950;2023-06-22T13:05:05;7.67;;;4.63;;
13014;SDS011;6573;57.696;11.950;2023-06-22T13:07:34;7.87;;;5.00;;
13014;SDS011;6573;57.696;11.950;2023-06-22T13:10:04;17.33;;;8.13;;
13014;SDS011;6573;57.696;11.950;2023-06-22T13:12:36;5.87;;;4.73;;
13014;SDS011;6573;57.696;11.950;2023-06-22T13:15:09;6.53;;;5.23;;
13014;SDS011;6573;57.696;11.950;2023-06-22T13:17:37;9.90;;;5.03;;
13014;SDS011;6573;57.696;11.950;2023-06-22T13:20:06;11.67;;;5.40;;
13014;SDS011;6573;57.696;11.950;2023-06-22T13:22:35;7.43;;;5.17;;
13014;SDS011;6573;57.696;11.950;2023-06-22T13:25:07;7.07;;;5.10;;
13014;SDS011;6573;57.696;11.950;2023-06-22T13:27:52;9.50;;;6.17;;
13014;SDS011;6573;57.696;11.950;2023-06-22T13:30:22;10.87;;;6.73;;
13014;SDS011;6573;57.696;11.950;2023-06-22T13:32:51;9.47;;;6.73;;
13014;SDS011;6573;57.696;11.950;2023-06-22T13:35:19;9.03;;;5.97;;
13014;SDS011;6573;57.696;11.950;2023-06-22T13:37:47;9.70;;;6.47;;
13014;SDS011;6573;57.696;11.950;2023-06-22T13:40:16;10.67;;;5.67;;
13014;SDS011;6573;57.696;11.950;2023-06-22T13:42:44;12.23;;;6.53;;
13014;SDS011;6573;57.696;11.950;2023-06-22T13:45:13;9.07;;;6.37;;
13014;SDS011;6573;57.696;11.950;2023-06-22T13:47:44;13.00;;;6.23;;
13014;SDS011;6573;57.696;11.950;2023-06-22T13:50:13;9.97;;;6.60;;
13014;SDS011;6573;57.696;11.950;2023-06-22T13:52:42;11.63;;;6.57;;
13014;SDS011;6573;57.696;11.950;2023-06-22T13:55:10;14.80;;;6.43;;
13014;SDS011;6573;57.696;11.950;2023-06-22T13:57:45;11.33;;;6.30;;
13014;SDS011;6573;57.696;11.950;2023-06-22T14:00:14;9.00;;;6.20;;
13014;SDS011;6573;57.696;11.950;2023-06-22T14:02:44;9.33;;;5.00;;
13014;SDS011;6573;57.696;11.950;2023-06-22T14:05:14;7.03;;;4.13;;
13014;SDS011;6573;57.696;11.950;2023-06-22T14:07:42;8.17;;;5.37;;
13014;SDS011;6573;57.696;11.950;2023-06-22T14:10:10;13.90;;;5.60;;
13014;SDS011;6573;57.696;11.950;2023-06-22T14:12:38;8.23;;;4.80;;
13014;SDS011;6573;57.696;11.950;2023-06-22T14:15:07;10.70;;;6.13;;
13014;SDS011;6573;57.696;11.950;2023-06-22T14:18:00;9.60;;;4.67;;
13014;SDS011;6573;57.696;11.950;2023-06-22T14:20:28;9.20;;;5.43;;
13014;SDS011;6573;57.696;11.950;2023-06-22T14:22:59;8.17;;;5.40;;
13014;SDS011;6573;57.696;11.950;2023-06-22T14:25:27;10.13;;;5.10;;
13014;SDS011;6573;57.696;11.950;2023-06-22T14:27:57;5.83;;;4.30;;
13014;SDS011;6573;57.696;11.950;2023-06-22T14:30:26;8.73;;;4.80;;
13014;SDS011;6573;57.696;11.950;2023-06-22T14:32:55;9.23;;;5.00;;
13014;SDS011;6573;57.696;11.950;2023-06-22T14:35:25;8.97;;;5.00;;
13014;SDS011;6573;57.696;11.950;2023-06-22T14:37:53;4.30;;;3.47;;
13014;SDS011;6573;57.696;11.950;2023-06-22T14:40:21;11.10;;;4.43;;
13014;SDS011;6573;57.696;11.950;2023-06-22T14:42:52;7.80;;;3.87;;
13014;SDS011;6573;57.696;11.950;2023-06-22T14:45:24;7.47;;;4.30;;
13014;SDS011;6573;57.696;11.950;2023-06-22T14:47:52;5.60;;;3.97;;
13014;SDS011;6573;57.696;11.950;2023-06-22T14:50:20;8.50;;;3.87;;
13014;SDS011;6573;57.696;11.950;2023-06-22T14:52:50;5.50;;;3.47;;
13014;SDS011;6573;57.696;11.950;2023-06-22T14:55:19;6.03;;;3.60;;
13014;SDS011;6573;57.696;11.950;2023-06-22T14:57:47;4.60;;;3.03;;
13014;SDS011;6573;57.696;11.950;2023-06-22T15:00:16;6.00;;;3.70;;
13014;SDS011;6573;57.696;11.950;2023-06-22T15:02:46;7.23;;;3.60;;
13014;SDS011;6573;57.696;11.950;2023-06-22T15:05:15;8.80;;;4.00;;
13014;SDS011;6573;57.696;11.950;2023-06-22T15:07:45;4.57;;;3.60;;
13014;SDS011;6573;57.696;11.950;2023-06-22T15:10:15;6.27;;;3.47;;
13014;SDS011;6573;57.696;11.950;2023-06-22T15:12:47;7.10;;;3.30;;
13014;SDS011;6573;57.696;11.950;2023-06-22T15:15:15;9.07;;;3.50;;